createdAt,value
2019-05-18T00:01:47.951Z,5.92
2019-05-18T00:04:17.292Z,6.22
2019-05-18T00:06:46.280Z,5.90
2019-05-18T00:09:15.280Z,5.87
2019-05-18T00:11:44.248Z,5.50
2019-05-18T00:14:13.261Z,6.20
2019-05-18T00:16:42.339Z,6.00
2019-05-18T00:19:11.339Z,6.42
2019-05-18T00:21:40.339Z,6.03
2019-05-18T00:24:09.434Z,5.97
2019-05-18T00:26:38.444Z,6.83
2019-05-18T00:29:07.516Z,6.00
2019-05-18T00:31:36.624Z,6.67
2019-05-18T00:34:05.505Z,5.62
2019-05-18T00:36:34.394Z,6.25
2019-05-18T00:39:05.055Z,5.70
2019-05-18T00:41:33.958Z,6.42
2019-05-18T00:44:03.015Z,6.60
2019-05-18T00:46:32.006Z,5.95
2019-05-18T00:49:00.885Z,6.03
2019-05-18T00:51:29.896Z,5.78
2019-05-18T00:53:59.292Z,6.03
2019-05-18T00:56:28.166Z,5.90
2019-05-18T00:58:57.065Z,6.40
2019-05-18T01:01:26.316Z,6.05
2019-05-18T01:03:55.387Z,6.78
2019-05-18T01:06:24.485Z,5.97
2019-05-18T01:08:53.565Z,6.70
2019-05-18T01:11:22.666Z,6.12
2019-05-18T01:13:51.765Z,5.87
2019-05-18T01:16:20.690Z,6.05
2019-05-18T01:18:50.165Z,5.72
2019-05-18T01:21:19.246Z,5.80
2019-05-18T01:23:48.344Z,6.28
2019-05-18T01:26:17.445Z,6.40
2019-05-18T01:28:46.545Z,7.37
2019-05-18T01:31:15.617Z,6.37
2019-05-18T01:33:44.540Z,5.92
2019-05-18T01:36:13.746Z,6.25
2019-05-18T01:38:42.827Z,5.60
2019-05-18T01:41:12.855Z,6.30
2019-05-18T01:43:42.016Z,6.70
2019-05-18T01:46:11.326Z,7.08
2019-05-18T01:48:40.329Z,6.78
2019-05-18T01:51:09.304Z,6.37
2019-05-18T01:53:38.611Z,6.28
2019-05-18T01:56:07.605Z,6.53
2019-05-18T01:58:36.586Z,6.45
2019-05-18T02:01:06.105Z,6.95
2019-05-18T02:03:35.313Z,6.72
2019-05-18T02:06:04.406Z,6.55
2019-05-18T02:08:33.448Z,6.45
2019-05-18T02:11:02.492Z,6.17
2019-05-18T02:13:31.586Z,6.28
2019-05-18T02:16:00.686Z,6.25
2019-05-18T02:18:29.885Z,6.72
2019-05-18T02:20:58.984Z,6.70
2019-05-18T02:23:28.067Z,6.53
2019-05-18T02:25:57.183Z,6.70
2019-05-18T02:28:26.241Z,6.53
2019-05-18T02:30:55.333Z,7.12
2019-05-18T02:33:24.453Z,6.87
2019-05-18T02:35:53.662Z,6.47
2019-05-18T02:38:22.746Z,6.65
2019-05-18T02:40:51.947Z,7.67
2019-05-18T02:43:21.823Z,6.75
2019-05-18T02:45:51.359Z,6.78
2019-05-18T02:48:20.460Z,7.20
2019-05-18T02:50:49.555Z,6.45
2019-05-18T02:53:18.546Z,6.58
2019-05-18T02:55:47.625Z,6.87
2019-05-18T02:58:16.761Z,7.40
2019-05-18T03:00:45.826Z,7.28
2019-05-18T03:03:14.909Z,6.97
2019-05-18T03:05:45.097Z,7.00
2019-05-18T03:08:14.210Z,6.60
2019-05-18T03:10:43.253Z,7.53
2019-05-18T03:13:12.238Z,7.42
2019-05-18T03:15:41.526Z,6.90
2019-05-18T03:18:10.498Z,7.15
2019-05-18T03:20:39.626Z,7.00
2019-05-18T03:23:08.942Z,7.28
2019-05-18T03:25:38.005Z,6.60
2019-05-18T03:28:06.994Z,6.87
2019-05-18T03:30:36.206Z,7.20
2019-05-18T03:33:05.609Z,7.72
2019-05-18T03:35:35.206Z,7.20
2019-05-18T03:38:04.405Z,7.12
2019-05-18T03:40:33.506Z,6.78
2019-05-18T03:43:02.922Z,7.42
2019-05-18T03:45:31.904Z,6.12
2019-05-18T03:48:00.906Z,7.33
2019-05-18T03:50:29.986Z,7.60
2019-05-18T03:52:59.074Z,7.50
2019-05-18T03:55:28.168Z,6.42
2019-05-18T03:57:57.068Z,6.92
2019-05-18T04:00:26.187Z,6.70
2019-05-18T04:02:55.147Z,7.22
2019-05-18T04:05:24.261Z,6.90
2019-05-18T04:07:53.360Z,6.85
2019-05-18T04:10:25.925Z,7.55
2019-05-18T04:12:55.015Z,7.17
2019-05-18T04:15:23.987Z,7.47
2019-05-18T04:17:52.980Z,7.10
2019-05-18T04:20:22.210Z,6.83
2019-05-18T04:22:51.305Z,7.75
2019-05-18T04:25:20.481Z,8.88
2019-05-18T04:27:49.485Z,9.35
2019-05-18T04:30:18.784Z,10.00
2019-05-18T04:32:47.883Z,9.53
2019-05-18T04:35:16.969Z,9.73
2019-05-18T04:37:46.275Z,9.13
2019-05-18T04:40:15.347Z,10.10
2019-05-18T04:42:44.232Z,9.70
2019-05-18T04:45:13.705Z,9.08
2019-05-18T04:47:42.646Z,8.88
2019-05-18T04:50:11.653Z,6.58
2019-05-18T04:52:40.746Z,6.80
2019-05-18T04:55:09.734Z,7.75
2019-05-18T04:57:38.741Z,8.00
2019-05-18T05:00:08.665Z,8.15
2019-05-18T05:02:37.750Z,7.83
2019-05-18T05:05:09.471Z,7.75
2019-05-18T05:07:38.488Z,7.87
2019-05-18T05:10:08.147Z,7.70
2019-05-18T05:12:36.983Z,8.48
2019-05-18T05:15:06.591Z,8.93
2019-05-18T05:17:35.484Z,8.33
2019-05-18T05:20:18.734Z,8.38
2019-05-18T05:22:36.765Z,8.23
2019-05-18T05:25:06.153Z,8.08
2019-05-18T05:27:35.136Z,8.38
2019-05-18T05:30:06.498Z,8.45
2019-05-18T05:32:37.007Z,9.10
2019-05-18T05:35:07.233Z,8.70
2019-05-18T05:37:36.345Z,8.80
2019-05-18T05:40:06.994Z,8.63
2019-05-18T05:42:36.263Z,7.95
2019-05-18T05:45:07.367Z,8.00
2019-05-18T05:47:36.508Z,8.25
2019-05-18T05:50:07.668Z,9.65
2019-05-18T05:52:36.639Z,9.65
2019-05-18T05:55:07.589Z,8.58
2019-05-18T05:57:36.573Z,8.43
2019-05-18T06:00:09.774Z,8.30
2019-05-18T06:02:38.771Z,8.10
2019-05-18T06:05:09.242Z,9.03
2019-05-18T06:07:38.177Z,9.98
2019-05-18T06:10:08.397Z,9.58
2019-05-18T06:12:37.417Z,10.63
2019-05-18T06:15:09.705Z,8.23
2019-05-18T06:17:39.076Z,11.83
2019-05-18T06:20:08.722Z,12.68
2019-05-18T06:22:37.981Z,9.10
2019-05-18T06:25:07.791Z,9.50
2019-05-18T06:27:37.001Z,9.60
2019-05-18T06:30:06.483Z,9.85
2019-05-18T06:32:35.506Z,9.38
2019-05-18T06:35:05.544Z,8.48
2019-05-18T06:37:35.383Z,9.80
2019-05-18T06:40:06.658Z,10.93
2019-05-18T06:42:35.508Z,9.63
2019-05-18T06:45:07.009Z,9.30
2019-05-18T06:47:36.089Z,9.88
2019-05-18T06:50:11.791Z,8.88
2019-05-18T06:52:39.322Z,8.13
2019-05-18T06:55:08.502Z,8.80
2019-05-18T06:57:37.996Z,8.93
2019-05-18T07:00:09.464Z,8.65
2019-05-18T07:02:38.568Z,9.10
2019-05-18T07:05:07.948Z,8.93
2019-05-18T07:07:37.061Z,9.20
2019-05-18T07:10:07.895Z,10.60
2019-05-18T07:12:36.995Z,9.13
2019-05-18T07:15:07.935Z,10.72
2019-05-18T07:17:36.909Z,9.83
2019-05-18T07:20:06.531Z,10.18
2019-05-18T07:22:35.824Z,9.98
2019-05-18T07:25:06.826Z,10.65
2019-05-18T07:27:36.398Z,9.48
2019-05-18T07:30:07.615Z,10.35
2019-05-18T07:32:36.715Z,9.60
2019-05-18T07:35:08.066Z,9.98
2019-05-18T07:37:37.150Z,9.68
2019-05-18T07:40:07.792Z,9.68
2019-05-18T07:42:36.766Z,8.33
2019-05-18T07:45:10.279Z,10.15
2019-05-18T07:47:39.384Z,8.80
2019-05-18T07:50:09.857Z,9.83
2019-05-18T07:52:38.996Z,9.65
2019-05-18T07:55:08.104Z,9.75
2019-05-18T07:57:37.189Z,9.03
2019-05-18T08:00:08.242Z,8.75
2019-05-18T08:02:37.334Z,9.95
2019-05-18T08:05:07.375Z,8.18
2019-05-18T08:07:36.545Z,12.68
2019-05-18T08:10:10.967Z,11.43
2019-05-18T08:12:40.066Z,9.88
2019-05-18T08:15:10.058Z,9.90
2019-05-18T08:17:39.188Z,12.63
2019-05-18T08:20:08.654Z,11.97
2019-05-18T08:22:37.771Z,11.53
2019-05-18T08:25:08.294Z,10.95
2019-05-18T08:27:37.192Z,12.13
2019-05-18T08:30:07.257Z,9.88
2019-05-18T08:32:36.430Z,13.10
2019-05-18T08:35:06.730Z,11.12
2019-05-18T08:37:35.727Z,12.85
2019-05-18T08:40:07.814Z,11.20
2019-05-18T08:42:37.967Z,10.70
2019-05-18T08:45:09.444Z,9.60
2019-05-18T08:47:38.450Z,9.50
2019-05-18T08:50:08.440Z,10.43
2019-05-18T08:52:37.460Z,12.65
2019-05-18T08:55:07.060Z,10.15
2019-05-18T08:57:38.315Z,8.80
2019-05-18T09:00:07.864Z,9.08
2019-05-18T09:02:36.914Z,9.48
2019-05-18T09:05:07.526Z,10.20
2019-05-18T09:07:39.015Z,10.15
2019-05-18T09:10:08.500Z,10.43
2019-05-18T09:12:37.705Z,9.53
2019-05-18T09:15:07.537Z,9.85
2019-05-18T09:17:36.613Z,11.05
2019-05-18T09:20:07.054Z,11.15
2019-05-18T09:22:36.030Z,11.75
2019-05-18T09:25:06.996Z,9.43
2019-05-18T09:27:36.191Z,8.75
2019-05-18T09:30:07.146Z,10.13
2019-05-18T09:32:36.348Z,10.90
2019-05-18T09:35:09.808Z,11.45
2019-05-18T09:37:38.899Z,8.60
2019-05-18T09:40:09.118Z,9.08
2019-05-18T09:42:38.209Z,10.98
2019-05-18T09:45:09.669Z,10.58
2019-05-18T09:47:38.765Z,9.30
2019-05-18T09:50:08.178Z,9.50
2019-05-18T09:52:45.071Z,11.35
2019-05-18T09:55:08.595Z,10.15
2019-05-18T09:57:37.713Z,10.65
2019-05-18T10:00:08.745Z,10.23
2019-05-18T10:02:37.834Z,8.60
2019-05-18T10:05:07.125Z,7.83
2019-05-18T10:07:36.124Z,9.40
2019-05-18T10:10:08.390Z,8.35
2019-05-18T10:12:37.597Z,8.55
2019-05-18T10:15:08.531Z,10.30
2019-05-18T10:17:37.539Z,11.08
2019-05-18T10:20:08.039Z,9.48
2019-05-18T10:22:36.939Z,10.60
2019-05-18T10:25:06.857Z,10.13
2019-05-18T10:27:35.959Z,11.70
2019-05-18T10:30:06.342Z,10.50
2019-05-18T10:32:35.270Z,12.07
2019-05-18T10:35:05.802Z,14.45
2019-05-18T10:37:34.694Z,15.20
2019-05-18T10:40:05.856Z,11.43
2019-05-18T10:42:35.053Z,14.95
2019-05-18T10:45:05.064Z,10.08
2019-05-18T10:47:34.277Z,8.68
2019-05-18T10:50:03.341Z,9.90
2019-05-18T10:52:32.453Z,10.85
2019-05-18T10:55:01.548Z,10.05
2019-05-18T10:57:32.364Z,12.63
2019-05-18T11:00:01.464Z,11.38
2019-05-18T11:02:30.448Z,12.15
2019-05-18T11:04:59.458Z,11.08
2019-05-18T11:07:29.053Z,7.72
2019-05-18T11:09:58.369Z,10.55
2019-05-18T11:12:27.564Z,8.10
2019-05-18T11:14:56.649Z,11.22
2019-05-18T11:17:25.652Z,7.62
2019-05-18T11:19:54.849Z,7.35
2019-05-18T11:22:23.841Z,8.45
2019-05-18T11:24:52.829Z,9.38
2019-05-18T11:27:21.929Z,7.85
2019-05-18T11:29:50.919Z,7.80
2019-05-18T11:32:20.026Z,6.22
2019-05-18T11:34:51.164Z,8.85
2019-05-18T11:37:20.274Z,7.75
2019-05-18T11:39:49.255Z,8.13
2019-05-18T11:42:18.441Z,6.55
2019-05-18T11:44:47.544Z,8.88
2019-05-18T11:47:16.844Z,8.65
2019-05-18T11:49:45.927Z,8.13
2019-05-18T11:52:14.914Z,9.10
2019-05-18T11:54:43.924Z,8.85
2019-05-18T11:57:13.183Z,7.58
2019-05-18T11:59:42.319Z,6.37
2019-05-18T12:02:11.406Z,8.40
2019-05-18T12:04:41.963Z,6.87
2019-05-18T12:07:12.054Z,6.37
2019-05-18T12:09:40.954Z,8.73
2019-05-18T12:12:10.049Z,8.00
2019-05-18T12:14:39.139Z,8.78
2019-05-18T12:17:08.139Z,9.30
2019-05-18T12:19:37.218Z,8.53
2019-05-18T12:22:06.618Z,9.05
2019-05-18T12:24:35.638Z,9.58
2019-05-18T12:27:04.934Z,9.73
2019-05-18T12:29:34.034Z,7.97
2019-05-18T12:32:03.004Z,7.50
2019-05-18T12:34:32.232Z,9.20
2019-05-18T12:37:01.314Z,8.33
2019-05-18T12:39:30.409Z,7.85
2019-05-18T12:41:59.388Z,7.15
2019-05-18T12:44:28.495Z,7.42
2019-05-18T12:46:57.487Z,6.90
2019-05-18T12:49:26.785Z,7.78
2019-05-18T12:51:57.026Z,7.50
2019-05-18T12:54:31.021Z,7.95
2019-05-18T12:56:57.970Z,7.90
2019-05-18T12:59:27.178Z,8.23
2019-05-18T13:01:56.026Z,8.00
2019-05-18T13:04:25.238Z,6.35
2019-05-18T13:06:54.127Z,7.50
2019-05-18T13:09:23.791Z,6.65
2019-05-18T13:11:53.149Z,7.78
2019-05-18T13:14:22.129Z,7.00
2019-05-18T13:16:51.244Z,7.42
2019-05-18T13:19:20.335Z,7.65
2019-05-18T13:21:49.542Z,7.33
2019-05-18T13:24:18.735Z,8.18
2019-05-18T13:26:47.934Z,7.08
2019-05-18T13:29:16.913Z,7.00
2019-05-18T13:31:47.745Z,7.50
2019-05-18T13:34:17.502Z,7.17
2019-05-18T13:36:46.571Z,5.92
2019-05-18T13:39:15.569Z,6.37
2019-05-18T13:41:44.859Z,6.80
2019-05-18T13:44:13.875Z,7.92
2019-05-18T13:46:42.736Z,7.15
2019-05-18T13:49:11.939Z,7.05
2019-05-18T13:51:41.026Z,6.30
2019-05-18T13:54:10.124Z,7.37
2019-05-18T13:56:39.956Z,6.28
2019-05-18T13:59:09.229Z,6.20
2019-05-18T14:01:38.340Z,6.53
2019-05-18T14:04:07.548Z,5.85
2019-05-18T14:06:36.527Z,6.40
2019-05-18T14:09:06.630Z,5.55
2019-05-18T14:11:35.844Z,5.97
2019-05-18T14:14:05.101Z,6.40
2019-05-18T14:16:34.132Z,6.15
2019-05-18T14:19:03.506Z,6.00
2019-05-18T14:21:32.635Z,6.53
2019-05-18T14:24:01.628Z,6.10
2019-05-18T14:26:30.721Z,5.90
2019-05-18T14:28:59.704Z,6.62
2019-05-18T14:31:28.714Z,5.70
2019-05-18T14:33:58.016Z,5.35
2019-05-18T14:36:26.895Z,5.85
2019-05-18T14:38:56.891Z,5.45
2019-05-18T14:41:26.229Z,6.22
2019-05-18T14:43:55.309Z,5.45
2019-05-18T14:46:24.289Z,5.60
2019-05-18T14:48:53.610Z,6.03
2019-05-18T14:51:23.110Z,5.47
2019-05-18T14:53:53.138Z,5.33
2019-05-18T14:56:22.839Z,5.12
2019-05-18T14:58:51.930Z,5.58
2019-05-18T15:01:20.936Z,4.80
2019-05-18T15:03:50.326Z,5.15
2019-05-18T15:06:20.850Z,4.83
2019-05-18T15:08:49.743Z,5.12
2019-05-18T15:11:19.051Z,5.25
2019-05-18T15:13:47.932Z,5.10
2019-05-18T15:16:16.902Z,5.03
2019-05-18T15:18:46.024Z,4.50
2019-05-18T15:21:14.919Z,4.00
2019-05-18T15:23:43.915Z,4.15
2019-05-18T15:26:13.139Z,5.45
2019-05-18T15:28:42.396Z,5.70
2019-05-18T15:31:11.402Z,6.00
2019-05-18T15:33:40.408Z,6.85
2019-05-18T15:36:09.599Z,7.80
2019-05-18T15:38:38.483Z,7.35
2019-05-18T15:41:09.119Z,8.43
2019-05-18T15:43:38.138Z,8.30
2019-05-18T15:46:07.091Z,7.80
2019-05-18T15:48:36.320Z,7.72
2019-05-18T15:51:05.391Z,6.75
2019-05-18T15:53:34.385Z,7.70
2019-05-18T15:56:06.277Z,7.25
2019-05-18T15:58:33.983Z,7.60
2019-05-18T16:01:02.990Z,8.53
2019-05-18T16:03:32.004Z,7.37
2019-05-18T16:06:01.194Z,7.92
2019-05-18T16:08:30.055Z,9.20
2019-05-18T16:10:59.200Z,8.28
2019-05-18T16:13:28.075Z,7.55
2019-05-18T16:15:57.160Z,8.30
2019-05-18T16:18:26.668Z,7.15
2019-05-18T16:20:55.685Z,7.05
2019-05-18T16:23:24.566Z,7.92
2019-05-18T16:25:53.405Z,7.22
2019-05-18T16:28:22.286Z,7.22
2019-05-18T16:30:51.067Z,7.78
2019-05-18T16:33:19.932Z,6.55
2019-05-18T16:35:48.984Z,6.67
2019-05-18T16:38:20.537Z,6.20
2019-05-18T16:40:58.361Z,6.40
2019-05-18T16:43:30.780Z,6.70
2019-05-18T16:46:00.960Z,7.40
2019-05-18T16:48:31.452Z,7.25
2019-05-18T16:51:03.384Z,7.53
2019-05-18T16:53:32.422Z,7.03
2019-05-18T16:56:01.414Z,7.08
2019-05-18T16:58:30.192Z,6.90
2019-05-18T17:00:59.597Z,7.65
2019-05-18T17:03:28.813Z,6.87
2019-05-18T17:05:58.834Z,6.90
2019-05-18T17:08:28.224Z,7.22
2019-05-18T17:10:57.319Z,6.87
2019-05-18T17:13:26.319Z,6.47
2019-05-18T17:15:55.317Z,6.80
2019-05-18T17:18:24.299Z,6.37
2019-05-18T17:20:53.407Z,6.35
2019-05-18T17:23:22.491Z,7.00
2019-05-18T17:25:51.777Z,6.30
2019-05-18T17:28:20.771Z,6.17
2019-05-18T17:30:49.670Z,5.83
2019-05-18T17:33:18.971Z,6.25
2019-05-18T17:36:00.055Z,6.50
2019-05-18T17:38:18.642Z,5.83
2019-05-18T17:40:47.794Z,7.55
2019-05-18T17:43:16.895Z,9.48
2019-05-18T17:45:45.994Z,8.95
2019-05-18T17:48:15.187Z,8.95
2019-05-18T17:50:44.162Z,9.88
2019-05-18T17:53:13.272Z,11.65
2019-05-18T17:55:42.471Z,12.82
2019-05-18T17:58:11.557Z,13.40
2019-05-18T18:00:40.674Z,12.80
2019-05-18T18:03:09.854Z,12.63
2019-05-18T18:05:38.959Z,15.15
2019-05-18T18:08:07.839Z,14.03
2019-05-18T18:10:37.049Z,12.90
2019-05-18T18:13:09.005Z,14.38
2019-05-18T18:15:36.669Z,13.20
2019-05-18T18:18:05.647Z,14.03
2019-05-18T18:20:34.792Z,13.48
2019-05-18T18:23:04.163Z,13.68
2019-05-18T18:25:33.240Z,13.62
2019-05-18T18:28:02.132Z,12.85
2019-05-18T18:30:31.136Z,15.00
2019-05-18T18:33:00.319Z,13.00
2019-05-18T18:35:29.422Z,12.78
2019-05-18T18:37:59.444Z,12.53
2019-05-18T18:40:28.645Z,12.45
2019-05-18T18:42:57.745Z,14.85
2019-05-18T18:45:26.835Z,14.07
2019-05-18T18:47:56.034Z,13.60
2019-05-18T18:50:24.885Z,14.63
2019-05-18T18:52:53.687Z,16.57
2019-05-18T18:55:22.632Z,19.05
2019-05-18T18:57:51.484Z,17.15
2019-05-18T19:00:21.346Z,16.35
2019-05-18T19:02:50.317Z,13.98
2019-05-18T19:05:19.278Z,14.80
2019-05-18T19:07:48.150Z,13.35
2019-05-18T19:10:17.189Z,13.40
2019-05-18T19:12:46.043Z,13.93
2019-05-18T19:15:16.850Z,14.35
2019-05-18T19:17:45.690Z,13.40
2019-05-18T19:20:14.498Z,16.87
2019-05-18T19:22:44.145Z,14.28
2019-05-18T19:25:15.060Z,14.15
2019-05-18T19:27:54.636Z,13.43
2019-05-18T19:30:15.052Z,15.10
2019-05-18T19:32:43.959Z,13.35
2019-05-18T19:35:14.314Z,13.90
2019-05-18T19:37:43.175Z,13.10
2019-05-18T19:40:14.005Z,12.07
2019-05-18T19:42:42.804Z,12.03
2019-05-18T19:45:12.189Z,13.25
2019-05-18T19:47:42.218Z,12.28
2019-05-18T19:50:11.547Z,13.45
2019-05-18T19:52:40.399Z,12.90
2019-05-18T19:55:09.540Z,15.25
2019-05-18T19:57:38.439Z,15.13
2019-05-18T20:00:08.248Z,14.10
2019-05-18T20:02:37.523Z,15.03
2019-05-18T20:05:09.176Z,13.62
2019-05-18T20:07:38.764Z,15.65
2019-05-18T20:10:08.569Z,14.13
2019-05-18T20:12:37.660Z,14.70
2019-05-18T20:15:09.595Z,15.32
2019-05-18T20:17:38.845Z,15.95
2019-05-18T20:20:08.184Z,14.70
2019-05-18T20:22:37.338Z,16.12
2019-05-18T20:25:06.614Z,15.95
2019-05-18T20:27:35.723Z,16.95
2019-05-18T20:30:06.375Z,13.22
2019-05-18T20:32:35.545Z,17.00
2019-05-18T20:35:04.719Z,15.95
2019-05-18T20:37:33.596Z,14.60
2019-05-18T20:40:04.116Z,15.95
2019-05-18T20:42:32.968Z,15.10
2019-05-18T20:45:01.856Z,16.32
2019-05-18T20:47:31.034Z,14.60
2019-05-18T20:49:59.920Z,15.15
2019-05-18T20:52:28.797Z,14.30
2019-05-18T20:54:57.778Z,16.15
2019-05-18T20:57:26.630Z,16.23
2019-05-18T20:59:55.569Z,15.00
2019-05-18T21:02:24.504Z,13.75
2019-05-18T21:04:53.488Z,14.40
2019-05-18T21:07:22.349Z,14.93
2019-05-18T21:09:51.560Z,13.78
2019-05-18T21:12:20.442Z,15.58
2019-05-18T21:14:49.344Z,14.98
2019-05-18T21:17:18.304Z,14.70
2019-05-18T21:19:47.164Z,13.78
2019-05-18T21:22:16.001Z,16.10
2019-05-18T21:24:44.927Z,15.80
2019-05-18T21:27:13.796Z,14.65
2019-05-18T21:29:42.824Z,15.95
2019-05-18T21:32:11.741Z,14.25
2019-05-18T21:34:40.534Z,14.58
2019-05-18T21:37:09.304Z,15.00
2019-05-18T21:39:38.318Z,14.70
2019-05-18T21:42:07.187Z,15.13
2019-05-18T21:44:36.126Z,15.58
2019-05-18T21:47:05.012Z,14.58
2019-05-18T21:49:33.918Z,13.30
2019-05-18T21:52:02.787Z,14.63
2019-05-18T21:54:31.829Z,16.77
2019-05-18T21:57:00.732Z,14.18
2019-05-18T21:59:29.624Z,15.10
2019-05-18T22:01:58.479Z,13.43
2019-05-18T22:04:27.370Z,15.18
2019-05-18T22:06:56.303Z,14.75
2019-05-18T22:09:25.263Z,15.03
2019-05-18T22:11:54.134Z,14.83
2019-05-18T22:14:23.023Z,13.60
2019-05-18T22:16:51.923Z,14.90
2019-05-18T22:19:20.804Z,14.10
2019-05-18T22:21:49.643Z,13.78
2019-05-18T22:24:18.616Z,13.40
2019-05-18T22:26:47.485Z,16.87
2019-05-18T22:29:16.347Z,15.95
2019-05-18T22:31:45.178Z,14.70
2019-05-18T22:34:14.015Z,15.65
2019-05-18T22:36:42.921Z,15.25
2019-05-18T22:39:11.844Z,16.05
2019-05-18T22:41:40.755Z,14.03
2019-05-18T22:44:09.688Z,15.85
2019-05-18T22:46:38.649Z,14.78
2019-05-18T22:49:07.564Z,16.45
2019-05-18T22:51:36.488Z,17.00
2019-05-18T22:54:05.502Z,16.45
2019-05-18T22:56:34.380Z,15.10
2019-05-18T22:59:03.240Z,14.78
2019-05-18T23:01:32.697Z,14.40
2019-05-18T23:04:01.491Z,15.63
2019-05-18T23:06:30.388Z,14.18
2019-05-18T23:08:59.322Z,14.55
2019-05-18T23:11:28.172Z,15.55
2019-05-18T23:13:57.055Z,14.40
2019-05-18T23:16:26.040Z,16.10
2019-05-18T23:18:57.068Z,16.05
2019-05-18T23:21:25.325Z,15.30
2019-05-18T23:23:54.236Z,14.33
2019-05-18T23:26:23.095Z,15.78
2019-05-18T23:28:51.959Z,14.38
2019-05-18T23:31:20.886Z,16.10
2019-05-18T23:33:49.816Z,15.38
2019-05-18T23:36:18.609Z,15.58
2019-05-18T23:38:47.511Z,17.17
2019-05-18T23:41:16.308Z,15.58
2019-05-18T23:43:45.226Z,17.17
2019-05-18T23:46:14.227Z,17.25
2019-05-18T23:48:43.080Z,16.70
2019-05-18T23:51:11.950Z,16.35
2019-05-18T23:53:40.901Z,15.63
2019-05-18T23:56:09.714Z,15.90
2019-05-18T23:58:38.556Z,16.15
